sensor_id;sensor_type;location;lat;lon;timestamp;P1;durP1;ratioP1;P2;durP2;ratioP2
562;SDS011;266;49.514;8.294;2022-07-23T00:00:53;5.00;;;4.60;;
562;SDS011;266;49.514;8.294;2022-07-23T00:03:21;4.60;;;4.20;;
562;SDS011;266;49.514;8.294;2022-07-23T00:05:49;5.43;;;4.93;;
562;SDS011;266;49.514;8.294;2022-07-23T00:08:17;4.83;;;4.43;;
562;SDS011;266;49.514;8.294;2022-07-23T00:10:46;4.50;;;4.10;;
562;SDS011;266;49.514;8.294;2022-07-23T00:13:14;5.07;;;4.57;;
562;SDS011;266;49.514;8.294;2022-07-23T00:15:42;5.43;;;4.93;;
562;SDS011;266;49.514;8.294;2022-07-23T00:18:11;5.80;;;4.50;;
562;SDS011;266;49.514;8.294;2022-07-23T00:20:39;4.77;;;4.10;;
562;SDS011;266;49.514;8.294;2022-07-23T00:23:07;5.10;;;4.70;;
562;SDS011;266;49.514;8.294;2022-07-23T00:25:35;5.77;;;5.27;;
562;SDS011;266;49.514;8.294;2022-07-23T00:28:03;5.00;;;4.60;;
562;SDS011;266;49.514;8.294;2022-07-23T00:30:32;4.77;;;4.40;;
562;SDS011;266;49.514;8.294;2022-07-23T00:33:00;4.93;;;4.47;;
562;SDS011;266;49.514;8.294;2022-07-23T00:35:33;5.80;;;5.30;;
562;SDS011;266;49.514;8.294;2022-07-23T00:38:03;5.43;;;4.93;;
562;SDS011;266;49.514;8.294;2022-07-23T00:40:32;5.77;;;5.20;;
562;SDS011;266;49.514;8.294;2022-07-23T00:43:00;5.67;;;5.17;;
562;SDS011;266;49.514;8.294;2022-07-23T00:45:31;6.20;;;5.60;;
562;SDS011;266;49.514;8.294;2022-07-23T00:48:00;5.67;;;5.27;;
562;SDS011;266;49.514;8.294;2022-07-23T00:50:28;5.40;;;4.87;;
562;SDS011;266;49.514;8.294;2022-07-23T00:52:58;5.37;;;4.87;;
562;SDS011;266;49.514;8.294;2022-07-23T00:55:26;5.00;;;4.60;;
562;SDS011;266;49.514;8.294;2022-07-23T00:57:54;7.90;;;5.10;;
562;SDS011;266;49.514;8.294;2022-07-23T01:00:23;4.83;;;4.43;;
562;SDS011;266;49.514;8.294;2022-07-23T01:02:51;4.87;;;4.47;;
562;SDS011;266;49.514;8.294;2022-07-23T01:05:19;4.43;;;4.13;;
562;SDS011;266;49.514;8.294;2022-07-23T01:07:48;5.30;;;4.67;;
562;SDS011;266;49.514;8.294;2022-07-23T01:10:23;5.10;;;4.70;;
562;SDS011;266;49.514;8.294;2022-07-23T01:13:02;5.03;;;4.63;;
562;SDS011;266;49.514;8.294;2022-07-23T01:15:32;5.93;;;5.33;;
562;SDS011;266;49.514;8.294;2022-07-23T01:18:01;5.90;;;5.27;;
562;SDS011;266;49.514;8.294;2022-07-23T01:20:30;5.20;;;4.70;;
562;SDS011;266;49.514;8.294;2022-07-23T01:22:59;5.30;;;4.80;;
562;SDS011;266;49.514;8.294;2022-07-23T01:25:28;5.37;;;4.87;;
562;SDS011;266;49.514;8.294;2022-07-23T01:27:57;5.20;;;4.70;;
562;SDS011;266;49.514;8.294;2022-07-23T01:30:25;6.03;;;5.03;;
562;SDS011;266;49.514;8.294;2022-07-23T01:32:53;5.20;;;4.73;;
562;SDS011;266;49.514;8.294;2022-07-23T01:35:21;5.23;;;4.73;;
562;SDS011;266;49.514;8.294;2022-07-23T01:37:49;5.93;;;5.07;;
562;SDS011;266;49.514;8.294;2022-07-23T01:40:18;5.63;;;5.13;;
562;SDS011;266;49.514;8.294;2022-07-23T01:42:48;6.50;;;5.50;;
562;SDS011;266;49.514;8.294;2022-07-23T01:45:16;5.20;;;4.80;;
562;SDS011;266;49.514;8.294;2022-07-23T01:47:44;4.90;;;4.53;;
562;SDS011;266;49.514;8.294;2022-07-23T01:50:12;5.27;;;4.87;;
562;SDS011;266;49.514;8.294;2022-07-23T01:52:40;4.73;;;4.33;;
562;SDS011;266;49.514;8.294;2022-07-23T01:55:09;6.13;;;5.53;;
562;SDS011;266;49.514;8.294;2022-07-23T01:57:45;5.77;;;5.27;;
562;SDS011;266;49.514;8.294;2022-07-23T02:00:14;6.63;;;5.50;;
562;SDS011;266;49.514;8.294;2022-07-23T02:02:42;5.47;;;4.90;;
562;SDS011;266;49.514;8.294;2022-07-23T02:05:10;6.07;;;5.57;;
562;SDS011;266;49.514;8.294;2022-07-23T02:07:39;5.53;;;5.03;;
562;SDS011;266;49.514;8.294;2022-07-23T02:10:08;5.37;;;4.90;;
562;SDS011;266;49.514;8.294;2022-07-23T02:12:36;5.70;;;5.30;;
562;SDS011;266;49.514;8.294;2022-07-23T02:15:06;6.30;;;5.70;;
562;SDS011;266;49.514;8.294;2022-07-23T02:17:35;5.40;;;5.00;;
562;SDS011;266;49.514;8.294;2022-07-23T02:20:04;6.57;;;5.87;;
562;SDS011;266;49.514;8.294;2022-07-23T02:22:34;6.20;;;5.60;;
562;SDS011;266;49.514;8.294;2022-07-23T02:25:04;5.83;;;5.10;;
562;SDS011;266;49.514;8.294;2022-07-23T02:27:34;6.83;;;6.10;;
562;SDS011;266;49.514;8.294;2022-07-23T02:30:03;5.17;;;4.77;;
562;SDS011;266;49.514;8.294;2022-07-23T02:32:34;6.77;;;6.13;;
562;SDS011;266;49.514;8.294;2022-07-23T02:35:02;5.20;;;4.80;;
562;SDS011;266;49.514;8.294;2022-07-23T02:37:31;6.03;;;5.53;;
562;SDS011;266;49.514;8.294;2022-07-23T02:40:00;6.23;;;5.73;;
562;SDS011;266;49.514;8.294;2022-07-23T02:42:28;5.90;;;5.23;;
562;SDS011;266;49.514;8.294;2022-07-23T02:44:56;5.50;;;5.10;;
562;SDS011;266;49.514;8.294;2022-07-23T02:47:25;6.70;;;5.30;;
562;SDS011;266;49.514;8.294;2022-07-23T02:49:53;7.67;;;5.33;;
562;SDS011;266;49.514;8.294;2022-07-23T02:52:21;5.83;;;5.33;;
562;SDS011;266;49.514;8.294;2022-07-23T02:54:49;6.00;;;5.50;;
562;SDS011;266;49.514;8.294;2022-07-23T02:57:17;5.40;;;4.90;;
562;SDS011;266;49.514;8.294;2022-07-23T02:59:45;4.70;;;4.30;;
562;SDS011;266;49.514;8.294;2022-07-23T03:02:13;5.63;;;5.17;;
562;SDS011;266;49.514;8.294;2022-07-23T03:04:43;5.80;;;5.20;;
562;SDS011;266;49.514;8.294;2022-07-23T03:07:11;5.20;;;4.80;;
562;SDS011;266;49.514;8.294;2022-07-23T03:09:39;5.23;;;4.83;;
562;SDS011;266;49.514;8.294;2022-07-23T03:12:09;5.40;;;4.90;;
562;SDS011;266;49.514;8.294;2022-07-23T03:14:39;5.47;;;4.97;;
562;SDS011;266;49.514;8.294;2022-07-23T03:17:08;5.57;;;5.17;;
562;SDS011;266;49.514;8.294;2022-07-23T03:19:36;6.30;;;5.70;;
562;SDS011;266;49.514;8.294;2022-07-23T03:22:06;5.87;;;5.37;;
562;SDS011;266;49.514;8.294;2022-07-23T03:24:34;5.97;;;5.40;;
562;SDS011;266;49.514;8.294;2022-07-23T03:27:19;5.27;;;4.73;;
562;SDS011;266;49.514;8.294;2022-07-23T03:29:48;5.00;;;4.57;;
562;SDS011;266;49.514;8.294;2022-07-23T03:32:16;6.20;;;5.70;;
562;SDS011;266;49.514;8.294;2022-07-23T03:34:44;5.97;;;5.47;;
562;SDS011;266;49.514;8.294;2022-07-23T03:37:14;6.20;;;5.60;;
562;SDS011;266;49.514;8.294;2022-07-23T03:39:42;7.50;;;5.73;;
562;SDS011;266;49.514;8.294;2022-07-23T03:42:10;6.13;;;5.63;;
562;SDS011;266;49.514;8.294;2022-07-23T03:44:38;6.33;;;5.60;;
562;SDS011;266;49.514;8.294;2022-07-23T03:47:06;5.80;;;5.30;;
562;SDS011;266;49.514;8.294;2022-07-23T03:49:34;5.37;;;4.87;;
562;SDS011;266;49.514;8.294;2022-07-23T03:52:02;6.30;;;5.70;;
562;SDS011;266;49.514;8.294;2022-07-23T03:54:32;6.77;;;6.10;;
562;SDS011;266;49.514;8.294;2022-07-23T03:57:00;6.33;;;5.70;;
562;SDS011;266;49.514;8.294;2022-07-23T03:59:30;5.83;;;5.33;;
562;SDS011;266;49.514;8.294;2022-07-23T04:01:57;6.67;;;6.07;;
562;SDS011;266;49.514;8.294;2022-07-23T04:04:26;6.83;;;6.13;;
562;SDS011;266;49.514;8.294;2022-07-23T04:06:54;6.53;;;6.03;;
562;SDS011;266;49.514;8.294;2022-07-23T04:09:22;5.60;;;5.10;;
562;SDS011;266;49.514;8.294;2022-07-23T04:11:51;10.23;;;6.87;;
562;SDS011;266;49.514;8.294;2022-07-23T04:14:19;6.93;;;6.23;;
562;SDS011;266;49.514;8.294;2022-07-23T04:16:48;7.23;;;6.50;;
562;SDS011;266;49.514;8.294;2022-07-23T04:19:16;6.20;;;5.70;;
562;SDS011;266;49.514;8.294;2022-07-23T04:21:44;7.13;;;6.43;;
562;SDS011;266;49.514;8.294;2022-07-23T04:24:12;7.33;;;6.67;;
562;SDS011;266;49.514;8.294;2022-07-23T04:26:40;6.33;;;5.73;;
562;SDS011;266;49.514;8.294;2022-07-23T04:29:09;6.93;;;6.43;;
562;SDS011;266;49.514;8.294;2022-07-23T04:31:37;8.00;;;6.97;;
562;SDS011;266;49.514;8.294;2022-07-23T04:34:05;6.30;;;5.70;;
562;SDS011;266;49.514;8.294;2022-07-23T04:36:33;6.73;;;6.10;;
562;SDS011;266;49.514;8.294;2022-07-23T04:39:01;7.53;;;6.83;;
562;SDS011;266;49.514;8.294;2022-07-23T04:41:30;7.27;;;6.60;;
562;SDS011;266;49.514;8.294;2022-07-23T04:43:58;7.97;;;7.20;;
562;SDS011;266;49.514;8.294;2022-07-23T04:46:27;7.70;;;6.87;;
562;SDS011;266;49.514;8.294;2022-07-23T04:48:55;7.40;;;6.70;;
562;SDS011;266;49.514;8.294;2022-07-23T04:51:24;7.83;;;6.50;;
562;SDS011;266;49.514;8.294;2022-07-23T04:53:52;7.70;;;6.90;;
562;SDS011;266;49.514;8.294;2022-07-23T04:56:21;8.00;;;6.73;;
562;SDS011;266;49.514;8.294;2022-07-23T04:58:49;6.97;;;6.37;;
562;SDS011;266;49.514;8.294;2022-07-23T05:01:17;7.20;;;6.60;;
562;SDS011;266;49.514;8.294;2022-07-23T05:03:49;8.77;;;7.87;;
562;SDS011;266;49.514;8.294;2022-07-23T05:06:18;14.07;;;9.00;;
562;SDS011;266;49.514;8.294;2022-07-23T05:08:46;7.73;;;6.57;;
562;SDS011;266;49.514;8.294;2022-07-23T05:11:14;7.40;;;6.60;;
562;SDS011;266;49.514;8.294;2022-07-23T05:13:42;7.73;;;6.93;;
562;SDS011;266;49.514;8.294;2022-07-23T05:16:10;7.70;;;7.00;;
562;SDS011;266;49.514;8.294;2022-07-23T05:18:38;7.57;;;6.87;;
562;SDS011;266;49.514;8.294;2022-07-23T05:21:08;6.93;;;6.10;;
562;SDS011;266;49.514;8.294;2022-07-23T05:23:36;7.83;;;7.13;;
562;SDS011;266;49.514;8.294;2022-07-23T05:26:04;8.27;;;6.63;;
562;SDS011;266;49.514;8.294;2022-07-23T05:28:32;9.17;;;8.10;;
562;SDS011;266;49.514;8.294;2022-07-23T05:31:00;10.03;;;6.13;;
562;SDS011;266;49.514;8.294;2022-07-23T05:33:30;7.43;;;6.83;;
562;SDS011;266;49.514;8.294;2022-07-23T05:35:59;7.13;;;6.37;;
562;SDS011;266;49.514;8.294;2022-07-23T05:38:31;6.93;;;6.37;;
562;SDS011;266;49.514;8.294;2022-07-23T05:40:59;7.83;;;7.13;;
562;SDS011;266;49.514;8.294;2022-07-23T05:43:27;7.40;;;6.70;;
562;SDS011;266;49.514;8.294;2022-07-23T05:45:55;7.23;;;6.50;;
562;SDS011;266;49.514;8.294;2022-07-23T05:48:24;8.53;;;6.80;;
562;SDS011;266;49.514;8.294;2022-07-23T05:50:52;8.60;;;7.70;;
562;SDS011;266;49.514;8.294;2022-07-23T05:53:20;8.77;;;8.07;;
562;SDS011;266;49.514;8.294;2022-07-23T05:55:49;8.23;;;7.07;;
562;SDS011;266;49.514;8.294;2022-07-23T05:58:17;9.97;;;7.40;;
562;SDS011;266;49.514;8.294;2022-07-23T06:00:45;8.63;;;7.73;;
562;SDS011;266;49.514;8.294;2022-07-23T06:03:16;7.50;;;6.87;;
562;SDS011;266;49.514;8.294;2022-07-23T06:05:44;7.80;;;7.10;;
562;SDS011;266;49.514;8.294;2022-07-23T06:08:12;9.67;;;8.00;;
562;SDS011;266;49.514;8.294;2022-07-23T06:10:40;6.87;;;6.20;;
562;SDS011;266;49.514;8.294;2022-07-23T06:13:10;6.03;;;5.53;;
562;SDS011;266;49.514;8.294;2022-07-23T06:15:40;8.43;;;7.73;;
562;SDS011;266;49.514;8.294;2022-07-23T06:18:08;7.23;;;6.53;;
562;SDS011;266;49.514;8.294;2022-07-23T06:20:36;8.00;;;7.30;;
562;SDS011;266;49.514;8.294;2022-07-23T06:23:04;6.50;;;5.90;;
562;SDS011;266;49.514;8.294;2022-07-23T06:25:32;8.73;;;7.07;;
562;SDS011;266;49.514;8.294;2022-07-23T06:28:00;6.93;;;6.23;;
562;SDS011;266;49.514;8.294;2022-07-23T06:30:30;11.70;;;7.10;;
562;SDS011;266;49.514;8.294;2022-07-23T06:32:58;8.17;;;7.37;;
562;SDS011;266;49.514;8.294;2022-07-23T06:35:26;10.00;;;7.83;;
562;SDS011;266;49.514;8.294;2022-07-23T06:37:53;7.43;;;6.70;;
562;SDS011;266;49.514;8.294;2022-07-23T06:40:22;8.50;;;6.97;;
562;SDS011;266;49.514;8.294;2022-07-23T06:42:50;7.97;;;7.23;;
562;SDS011;266;49.514;8.294;2022-07-23T06:45:18;7.97;;;5.77;;
562;SDS011;266;49.514;8.294;2022-07-23T06:47:47;7.33;;;6.50;;
562;SDS011;266;49.514;8.294;2022-07-23T06:50:15;6.60;;;6.00;;
562;SDS011;266;49.514;8.294;2022-07-23T06:52:43;8.63;;;6.60;;
562;SDS011;266;49.514;8.294;2022-07-23T06:55:12;7.70;;;7.00;;
562;SDS011;266;49.514;8.294;2022-07-23T06:57:40;7.43;;;6.67;;
562;SDS011;266;49.514;8.294;2022-07-23T07:00:11;7.67;;;6.87;;
562;SDS011;266;49.514;8.294;2022-07-23T07:02:39;7.33;;;6.63;;
562;SDS011;266;49.514;8.294;2022-07-23T07:05:09;8.50;;;7.70;;
562;SDS011;266;49.514;8.294;2022-07-23T07:07:37;6.80;;;6.20;;
562;SDS011;266;49.514;8.294;2022-07-23T07:10:06;7.47;;;6.70;;
562;SDS011;266;49.514;8.294;2022-07-23T07:12:41;8.20;;;7.07;;
562;SDS011;266;49.514;8.294;2022-07-23T07:15:09;8.13;;;6.87;;
562;SDS011;266;49.514;8.294;2022-07-23T07:17:37;7.73;;;6.93;;
562;SDS011;266;49.514;8.294;2022-07-23T07:20:06;8.23;;;7.50;;
562;SDS011;266;49.514;8.294;2022-07-23T07:22:36;8.13;;;6.70;;
562;SDS011;266;49.514;8.294;2022-07-23T07:25:04;7.57;;;6.90;;
562;SDS011;266;49.514;8.294;2022-07-23T07:27:33;7.43;;;6.73;;
562;SDS011;266;49.514;8.294;2022-07-23T07:30:01;7.07;;;6.40;;
562;SDS011;266;49.514;8.294;2022-07-23T07:32:29;7.77;;;7.07;;
562;SDS011;266;49.514;8.294;2022-07-23T07:35:18;7.53;;;6.90;;
562;SDS011;266;49.514;8.294;2022-07-23T07:37:47;7.93;;;6.33;;
562;SDS011;266;49.514;8.294;2022-07-23T07:40:15;7.13;;;6.43;;
562;SDS011;266;49.514;8.294;2022-07-23T07:42:44;7.40;;;6.70;;
562;SDS011;266;49.514;8.294;2022-07-23T07:45:12;7.37;;;6.77;;
562;SDS011;266;49.514;8.294;2022-07-23T07:47:41;8.77;;;7.47;;
562;SDS011;266;49.514;8.294;2022-07-23T07:50:09;7.17;;;6.53;;
562;SDS011;266;49.514;8.294;2022-07-23T07:52:37;7.57;;;6.90;;
562;SDS011;266;49.514;8.294;2022-07-23T07:55:08;8.53;;;7.70;;
562;SDS011;266;49.514;8.294;2022-07-23T07:57:37;6.90;;;6.30;;
562;SDS011;266;49.514;8.294;2022-07-23T08:00:05;8.70;;;7.20;;
562;SDS011;266;49.514;8.294;2022-07-23T08:02:42;7.53;;;6.80;;
562;SDS011;266;49.514;8.294;2022-07-23T08:05:11;8.50;;;6.57;;
562;SDS011;266;49.514;8.294;2022-07-23T08:07:40;7.30;;;6.70;;
562;SDS011;266;49.514;8.294;2022-07-23T08:10:10;6.70;;;6.10;;
562;SDS011;266;49.514;8.294;2022-07-23T08:12:39;6.80;;;6.25;;
562;SDS011;266;49.514;8.294;2022-07-23T08:15:12;8.67;;;7.07;;
562;SDS011;266;49.514;8.294;2022-07-23T08:17:41;7.30;;;6.60;;
562;SDS011;266;49.514;8.294;2022-07-23T08:20:10;7.70;;;6.93;;
562;SDS011;266;49.514;8.294;2022-07-23T08:22:43;7.53;;;6.73;;
562;SDS011;266;49.514;8.294;2022-07-23T08:25:14;6.00;;;5.53;;
562;SDS011;266;49.514;8.294;2022-07-23T08:27:43;6.37;;;5.80;;
562;SDS011;266;49.514;8.294;2022-07-23T08:30:11;6.47;;;5.80;;
562;SDS011;266;49.514;8.294;2022-07-23T08:32:49;6.80;;;5.97;;
562;SDS011;266;49.514;8.294;2022-07-23T08:35:20;5.93;;;5.43;;
562;SDS011;266;49.514;8.294;2022-07-23T08:37:50;5.90;;;5.40;;
562;SDS011;266;49.514;8.294;2022-07-23T08:40:20;7.53;;;6.83;;
562;SDS011;266;49.514;8.294;2022-07-23T08:42:49;5.00;;;4.53;;
562;SDS011;266;49.514;8.294;2022-07-23T08:45:19;6.27;;;5.73;;
562;SDS011;266;49.514;8.294;2022-07-23T08:47:49;6.50;;;6.00;;
562;SDS011;266;49.514;8.294;2022-07-23T08:50:19;6.00;;;5.40;;
562;SDS011;266;49.514;8.294;2022-07-23T08:52:48;6.83;;;6.23;;
562;SDS011;266;49.514;8.294;2022-07-23T08:55:16;5.70;;;5.30;;
562;SDS011;266;49.514;8.294;2022-07-23T08:57:47;6.03;;;5.53;;
562;SDS011;266;49.514;8.294;2022-07-23T09:00:17;6.60;;;6.00;;
562;SDS011;266;49.514;8.294;2022-07-23T09:02:46;5.77;;;5.27;;
562;SDS011;266;49.514;8.294;2022-07-23T09:05:15;6.63;;;6.03;;
562;SDS011;266;49.514;8.294;2022-07-23T09:10:36;7.40;;;6.70;;
562;SDS011;266;49.514;8.294;2022-07-23T09:16:10;6.47;;;5.87;;
562;SDS011;266;49.514;8.294;2022-07-23T09:18:41;6.73;;;5.93;;
562;SDS011;266;49.514;8.294;2022-07-23T09:21:18;6.87;;;6.13;;
562;SDS011;266;49.514;8.294;2022-07-23T09:23:51;7.40;;;6.70;;
562;SDS011;266;49.514;8.294;2022-07-23T09:26:25;6.57;;;6.03;;
562;SDS011;266;49.514;8.294;2022-07-23T09:28:59;7.00;;;6.40;;
562;SDS011;266;49.514;8.294;2022-07-23T09:31:32;6.77;;;6.17;;
562;SDS011;266;49.514;8.294;2022-07-23T09:34:09;6.20;;;5.70;;
562;SDS011;266;49.514;8.294;2022-07-23T09:36:39;8.27;;;6.80;;
562;SDS011;266;49.514;8.294;2022-07-23T09:39:10;6.53;;;6.00;;
562;SDS011;266;49.514;8.294;2022-07-23T09:41:39;6.27;;;5.70;;
562;SDS011;266;49.514;8.294;2022-07-23T09:44:12;5.60;;;5.10;;
562;SDS011;266;49.514;8.294;2022-07-23T09:46:44;7.03;;;6.40;;
562;SDS011;266;49.514;8.294;2022-07-23T09:49:14;5.60;;;5.10;;
562;SDS011;266;49.514;8.294;2022-07-23T09:51:54;6.73;;;5.87;;
562;SDS011;266;49.514;8.294;2022-07-23T09:54:25;6.43;;;5.53;;
562;SDS011;266;49.514;8.294;2022-07-23T09:56:57;6.67;;;6.07;;
562;SDS011;266;49.514;8.294;2022-07-23T09:59:29;8.00;;;6.67;;
562;SDS011;266;49.514;8.294;2022-07-23T10:01:58;6.03;;;5.53;;
562;SDS011;266;49.514;8.294;2022-07-23T10:04:27;5.57;;;5.17;;
562;SDS011;266;49.514;8.294;2022-07-23T10:06:57;5.87;;;5.37;;
562;SDS011;266;49.514;8.294;2022-07-23T10:09:27;6.60;;;6.10;;
562;SDS011;266;49.514;8.294;2022-07-23T10:11:57;6.10;;;5.60;;
562;SDS011;266;49.514;8.294;2022-07-23T10:14:33;7.27;;;6.63;;
562;SDS011;266;49.514;8.294;2022-07-23T10:17:02;7.20;;;6.20;;
562;SDS011;266;49.514;8.294;2022-07-23T10:19:30;4.93;;;4.60;;
562;SDS011;266;49.514;8.294;2022-07-23T10:22:00;6.47;;;5.97;;
562;SDS011;266;49.514;8.294;2022-07-23T10:24:36;7.47;;;6.77;;
562;SDS011;266;49.514;8.294;2022-07-23T10:27:20;6.73;;;6.13;;
562;SDS011;266;49.514;8.294;2022-07-23T10:30:10;6.93;;;6.10;;
562;SDS011;266;49.514;8.294;2022-07-23T10:32:45;5.83;;;5.33;;
562;SDS011;266;49.514;8.294;2022-07-23T10:35:22;6.03;;;5.53;;
562;SDS011;266;49.514;8.294;2022-07-23T10:37:55;7.80;;;6.00;;
562;SDS011;266;49.514;8.294;2022-07-23T10:40:28;7.90;;;6.20;;
562;SDS011;266;49.514;8.294;2022-07-23T10:42:59;6.30;;;5.73;;
562;SDS011;266;49.514;8.294;2022-07-23T10:45:30;6.17;;;5.70;;
562;SDS011;266;49.514;8.294;2022-07-23T10:48:11;6.73;;;6.20;;
562;SDS011;266;49.514;8.294;2022-07-23T10:50:42;5.70;;;5.20;;
562;SDS011;266;49.514;8.294;2022-07-23T10:53:12;6.37;;;5.87;;
562;SDS011;266;49.514;8.294;2022-07-23T10:55:44;5.70;;;5.30;;
562;SDS011;266;49.514;8.294;2022-07-23T10:58:17;6.10;;;5.60;;
562;SDS011;266;49.514;8.294;2022-07-23T11:00:49;6.50;;;6.00;;
562;SDS011;266;49.514;8.294;2022-07-23T11:03:30;5.93;;;5.43;;
562;SDS011;266;49.514;8.294;2022-07-23T11:06:02;6.33;;;5.73;;
562;SDS011;266;49.514;8.294;2022-07-23T11:08:31;6.07;;;5.67;;
562;SDS011;266;49.514;8.294;2022-07-23T11:11:07;5.90;;;5.40;;
562;SDS011;266;49.514;8.294;2022-07-23T11:13:40;6.47;;;5.97;;
562;SDS011;266;49.514;8.294;2022-07-23T11:16:14;6.63;;;6.03;;
562;SDS011;266;49.514;8.294;2022-07-23T11:18:54;5.57;;;5.17;;
562;SDS011;266;49.514;8.294;2022-07-23T11:21:42;6.23;;;5.73;;
562;SDS011;266;49.514;8.294;2022-07-23T11:24:15;6.97;;;6.30;;
562;SDS011;266;49.514;8.294;2022-07-23T11:26:46;7.63;;;6.93;;
562;SDS011;266;49.514;8.294;2022-07-23T11:29:40;5.40;;;4.97;;
562;SDS011;266;49.514;8.294;2022-07-23T11:32:25;6.23;;;5.73;;
562;SDS011;266;49.514;8.294;2022-07-23T11:34:56;6.60;;;6.10;;
562;SDS011;266;49.514;8.294;2022-07-23T11:37:27;6.10;;;5.60;;
562;SDS011;266;49.514;8.294;2022-07-23T11:40:06;6.60;;;6.00;;
562;SDS011;266;49.514;8.294;2022-07-23T11:42:36;6.67;;;6.07;;
562;SDS011;266;49.514;8.294;2022-07-23T11:45:06;6.23;;;5.70;;
562;SDS011;266;49.514;8.294;2022-07-23T11:47:36;5.93;;;5.50;;
562;SDS011;266;49.514;8.294;2022-07-23T11:50:05;6.30;;;5.70;;
562;SDS011;266;49.514;8.294;2022-07-23T11:52:34;7.10;;;6.40;;
562;SDS011;266;49.514;8.294;2022-07-23T11:55:03;6.40;;;5.90;;
562;SDS011;266;49.514;8.294;2022-07-23T11:57:33;6.67;;;6.17;;
562;SDS011;266;49.514;8.294;2022-07-23T12:00:03;6.70;;;6.13;;
562;SDS011;266;49.514;8.294;2022-07-23T12:02:34;6.17;;;5.70;;
562;SDS011;266;49.514;8.294;2022-07-23T12:05:03;6.67;;;6.13;;
562;SDS011;266;49.514;8.294;2022-07-23T12:07:33;7.40;;;6.70;;
562;SDS011;266;49.514;8.294;2022-07-23T12:10:03;8.23;;;5.57;;
562;SDS011;266;49.514;8.294;2022-07-23T12:12:35;6.93;;;6.33;;
562;SDS011;266;49.514;8.294;2022-07-23T12:15:04;6.83;;;6.23;;
562;SDS011;266;49.514;8.294;2022-07-23T12:17:34;7.07;;;6.47;;
562;SDS011;266;49.514;8.294;2022-07-23T12:20:05;5.87;;;5.23;;
562;SDS011;266;49.514;8.294;2022-07-23T12:22:36;5.97;;;5.47;;
562;SDS011;266;49.514;8.294;2022-07-23T12:25:06;6.17;;;5.60;;
562;SDS011;266;49.514;8.294;2022-07-23T12:27:36;7.10;;;6.50;;
562;SDS011;266;49.514;8.294;2022-07-23T12:30:17;7.30;;;6.70;;
562;SDS011;266;49.514;8.294;2022-07-23T12:32:48;6.80;;;6.23;;
562;SDS011;266;49.514;8.294;2022-07-23T12:35:19;7.13;;;6.53;;
562;SDS011;266;49.514;8.294;2022-07-23T12:37:49;7.53;;;6.20;;
562;SDS011;266;49.514;8.294;2022-07-23T12:40:23;6.57;;;5.97;;
562;SDS011;266;49.514;8.294;2022-07-23T12:42:54;6.17;;;5.67;;
562;SDS011;266;49.514;8.294;2022-07-23T12:45:23;6.13;;;5.63;;
562;SDS011;266;49.514;8.294;2022-07-23T12:48:00;6.97;;;6.23;;
562;SDS011;266;49.514;8.294;2022-07-23T12:50:34;7.13;;;6.40;;
562;SDS011;266;49.514;8.294;2022-07-23T12:53:05;6.87;;;6.00;;
562;SDS011;266;49.514;8.294;2022-07-23T12:55:44;5.73;;;5.23;;
562;SDS011;266;49.514;8.294;2022-07-23T12:58:39;6.50;;;5.90;;
562;SDS011;266;49.514;8.294;2022-07-23T13:01:10;5.73;;;5.17;;
562;SDS011;266;49.514;8.294;2022-07-23T13:03:55;5.93;;;5.37;;
562;SDS011;266;49.514;8.294;2022-07-23T13:06:26;5.97;;;5.47;;
562;SDS011;266;49.514;8.294;2022-07-23T13:08:54;6.60;;;5.90;;
562;SDS011;266;49.514;8.294;2022-07-23T13:11:23;6.10;;;5.60;;
562;SDS011;266;49.514;8.294;2022-07-23T13:13:51;6.27;;;5.67;;
562;SDS011;266;49.514;8.294;2022-07-23T13:16:19;6.67;;;6.07;;
562;SDS011;266;49.514;8.294;2022-07-23T13:18:47;6.03;;;5.53;;
562;SDS011;266;49.514;8.294;2022-07-23T13:21:16;6.37;;;5.77;;
562;SDS011;266;49.514;8.294;2022-07-23T13:23:47;6.90;;;6.30;;
562;SDS011;266;49.514;8.294;2022-07-23T13:26:15;5.10;;;4.70;;
562;SDS011;266;49.514;8.294;2022-07-23T13:28:43;5.60;;;5.20;;
562;SDS011;266;49.514;8.294;2022-07-23T13:31:11;5.00;;;4.70;;
562;SDS011;266;49.514;8.294;2022-07-23T13:33:41;6.47;;;5.97;;
562;SDS011;266;49.514;8.294;2022-07-23T13:36:09;5.67;;;5.20;;
562;SDS011;266;49.514;8.294;2022-07-23T13:38:38;6.23;;;5.73;;
562;SDS011;266;49.514;8.294;2022-07-23T13:41:08;6.60;;;6.10;;
562;SDS011;266;49.514;8.294;2022-07-23T13:43:56;6.20;;;5.70;;
562;SDS011;266;49.514;8.294;2022-07-23T13:46:24;6.00;;;5.40;;
562;SDS011;266;49.514;8.294;2022-07-23T13:48:52;5.87;;;5.37;;
562;SDS011;266;49.514;8.294;2022-07-23T13:51:20;5.37;;;4.87;;
562;SDS011;266;49.514;8.294;2022-07-23T13:53:51;5.73;;;5.23;;
562;SDS011;266;49.514;8.294;2022-07-23T13:56:20;6.30;;;5.70;;
562;SDS011;266;49.514;8.294;2022-07-23T13:58:48;6.40;;;5.90;;
562;SDS011;266;49.514;8.294;2022-07-23T14:01:17;6.30;;;5.80;;
562;SDS011;266;49.514;8.294;2022-07-23T14:03:45;5.00;;;4.60;;
562;SDS011;266;49.514;8.294;2022-07-23T14:06:13;5.87;;;5.13;;
562;SDS011;266;49.514;8.294;2022-07-23T14:08:42;6.00;;;5.40;;
562;SDS011;266;49.514;8.294;2022-07-23T14:11:10;5.70;;;5.20;;
562;SDS011;266;49.514;8.294;2022-07-23T14:13:40;6.37;;;5.87;;
562;SDS011;266;49.514;8.294;2022-07-23T14:16:08;6.67;;;6.07;;
562;SDS011;266;49.514;8.294;2022-07-23T14:18:36;6.40;;;5.77;;
562;SDS011;266;49.514;8.294;2022-07-23T14:21:05;5.00;;;4.67;;
562;SDS011;266;49.514;8.294;2022-07-23T14:23:33;5.80;;;5.30;;
562;SDS011;266;49.514;8.294;2022-07-23T14:26:01;6.37;;;5.80;;
562;SDS011;266;49.514;8.294;2022-07-23T14:28:31;5.90;;;5.50;;
562;SDS011;266;49.514;8.294;2022-07-23T14:31:02;5.93;;;5.50;;
562;SDS011;266;49.514;8.294;2022-07-23T14:33:31;6.27;;;5.77;;
562;SDS011;266;49.514;8.294;2022-07-23T14:36:00;6.40;;;5.80;;
562;SDS011;266;49.514;8.294;2022-07-23T14:38:29;6.80;;;6.30;;
562;SDS011;266;49.514;8.294;2022-07-23T14:40:57;7.03;;;6.20;;
562;SDS011;266;49.514;8.294;2022-07-23T14:43:25;10.87;;;5.70;;
562;SDS011;266;49.514;8.294;2022-07-23T14:45:54;6.83;;;6.23;;
562;SDS011;266;49.514;8.294;2022-07-23T14:48:24;6.40;;;5.90;;
562;SDS011;266;49.514;8.294;2022-07-23T14:50:53;5.67;;;5.17;;
562;SDS011;266;49.514;8.294;2022-07-23T14:53:21;6.83;;;6.13;;
562;SDS011;266;49.514;8.294;2022-07-23T14:55:51;6.20;;;5.60;;
562;SDS011;266;49.514;8.294;2022-07-23T14:58:20;6.87;;;6.27;;
562;SDS011;266;49.514;8.294;2022-07-23T15:00:49;6.10;;;5.60;;
562;SDS011;266;49.514;8.294;2022-07-23T15:03:17;6.47;;;5.97;;
562;SDS011;266;49.514;8.294;2022-07-23T15:05:46;6.27;;;5.67;;
562;SDS011;266;49.514;8.294;2022-07-23T15:08:14;6.00;;;5.50;;
562;SDS011;266;49.514;8.294;2022-07-23T15:10:49;6.33;;;5.83;;
562;SDS011;266;49.514;8.294;2022-07-23T15:13:17;5.73;;;5.33;;
562;SDS011;266;49.514;8.294;2022-07-23T15:15:45;6.30;;;5.70;;
562;SDS011;266;49.514;8.294;2022-07-23T15:18:19;5.60;;;5.13;;
562;SDS011;266;49.514;8.294;2022-07-23T15:20:48;5.50;;;5.10;;
562;SDS011;266;49.514;8.294;2022-07-23T15:23:17;6.30;;;5.80;;
562;SDS011;266;49.514;8.294;2022-07-23T15:25:45;6.20;;;5.70;;
562;SDS011;266;49.514;8.294;2022-07-23T15:28:16;5.37;;;4.97;;
562;SDS011;266;49.514;8.294;2022-07-23T15:30:47;6.47;;;5.87;;
562;SDS011;266;49.514;8.294;2022-07-23T15:33:15;5.70;;;5.30;;
562;SDS011;266;49.514;8.294;2022-07-23T15:35:46;5.47;;;4.87;;
562;SDS011;266;49.514;8.294;2022-07-23T15:38:16;5.80;;;5.20;;
562;SDS011;266;49.514;8.294;2022-07-23T15:41:04;6.27;;;5.67;;
562;SDS011;266;49.514;8.294;2022-07-23T15:43:32;6.80;;;6.13;;
562;SDS011;266;49.514;8.294;2022-07-23T15:46:00;6.00;;;5.50;;
562;SDS011;266;49.514;8.294;2022-07-23T15:48:33;5.60;;;5.20;;
562;SDS011;266;49.514;8.294;2022-07-23T15:51:05;6.77;;;6.10;;
562;SDS011;266;49.514;8.294;2022-07-23T15:53:33;6.87;;;5.90;;
562;SDS011;266;49.514;8.294;2022-07-23T15:56:03;6.20;;;5.57;;
562;SDS011;266;49.514;8.294;2022-07-23T15:58:52;6.03;;;5.60;;
562;SDS011;266;49.514;8.294;2022-07-23T16:01:20;5.20;;;4.80;;
562;SDS011;266;49.514;8.294;2022-07-23T16:03:49;6.73;;;6.13;;
562;SDS011;266;49.514;8.294;2022-07-23T16:06:19;6.07;;;5.03;;
562;SDS011;266;49.514;8.294;2022-07-23T16:08:47;6.00;;;5.50;;